sensor_id;sensor_type;location;lat;lon;timestamp;P1;durP1;ratioP1;P2;durP2;ratioP2
19434;SDS011;9853;50.848;4.108;2023-02-13T00:01:37;87.63;;;38.73;;
19434;SDS011;9853;50.848;4.108;2023-02-13T00:03:38;82.17;;;36.50;;
19434;SDS011;9853;50.848;4.108;2023-02-13T00:05:39;84.00;;;37.33;;
19434;SDS011;9853;50.848;4.108;2023-02-13T00:07:39;82.83;;;37.63;;
19434;SDS011;9853;50.848;4.108;2023-02-13T00:09:43;85.63;;;36.70;;
19434;SDS011;9853;50.848;4.108;2023-02-13T00:11:44;82.97;;;36.57;;
19434;SDS011;9853;50.848;4.108;2023-02-13T00:13:44;82.33;;;37.23;;
19434;SDS011;9853;50.848;4.108;2023-02-13T00:15:53;92.97;;;40.53;;
19434;SDS011;9853;50.848;4.108;2023-02-13T00:17:58;87.43;;;38.63;;
19434;SDS011;9853;50.848;4.108;2023-02-13T00:19:59;93.70;;;40.30;;
19434;SDS011;9853;50.848;4.108;2023-02-13T00:22:00;94.97;;;39.40;;
19434;SDS011;9853;50.848;4.108;2023-02-13T00:24:00;94.90;;;40.03;;
19434;SDS011;9853;50.848;4.108;2023-02-13T00:26:04;94.40;;;39.83;;
19434;SDS011;9853;50.848;4.108;2023-02-13T00:28:11;98.07;;;40.87;;
19434;SDS011;9853;50.848;4.108;2023-02-13T00:30:11;99.47;;;41.97;;
19434;SDS011;9853;50.848;4.108;2023-02-13T00:32:13;102.70;;;42.67;;
19434;SDS011;9853;50.848;4.108;2023-02-13T00:34:14;99.30;;;40.40;;
19434;SDS011;9853;50.848;4.108;2023-02-13T00:36:16;101.83;;;42.33;;
19434;SDS011;9853;50.848;4.108;2023-02-13T00:38:18;105.33;;;40.83;;
19434;SDS011;9853;50.848;4.108;2023-02-13T00:40:19;101.50;;;40.13;;
19434;SDS011;9853;50.848;4.108;2023-02-13T00:42:22;95.63;;;40.23;;
19434;SDS011;9853;50.848;4.108;2023-02-13T00:44:27;99.10;;;41.07;;
19434;SDS011;9853;50.848;4.108;2023-02-13T00:46:28;101.87;;;40.47;;
19434;SDS011;9853;50.848;4.108;2023-02-13T00:48:29;109.80;;;41.20;;
19434;SDS011;9853;50.848;4.108;2023-02-13T00:50:34;98.67;;;40.20;;
19434;SDS011;9853;50.848;4.108;2023-02-13T00:52:36;94.53;;;40.00;;
19434;SDS011;9853;50.848;4.108;2023-02-13T00:54:40;101.40;;;38.93;;
19434;SDS011;9853;50.848;4.108;2023-02-13T00:56:41;109.83;;;41.67;;
19434;SDS011;9853;50.848;4.108;2023-02-13T00:58:42;109.23;;;42.50;;
19434;SDS011;9853;50.848;4.108;2023-02-13T01:00:52;105.47;;;41.43;;
19434;SDS011;9853;50.848;4.108;2023-02-13T01:02:55;99.70;;;40.50;;
19434;SDS011;9853;50.848;4.108;2023-02-13T01:04:58;107.90;;;41.23;;
19434;SDS011;9853;50.848;4.108;2023-02-13T01:06:59;95.43;;;40.10;;
19434;SDS011;9853;50.848;4.108;2023-02-13T01:09:03;109.47;;;40.57;;
19434;SDS011;9853;50.848;4.108;2023-02-13T01:11:09;120.57;;;42.23;;
19434;SDS011;9853;50.848;4.108;2023-02-13T01:13:10;105.83;;;44.03;;
19434;SDS011;9853;50.848;4.108;2023-02-13T01:15:13;101.70;;;40.50;;
19434;SDS011;9853;50.848;4.108;2023-02-13T01:17:15;105.17;;;41.30;;
19434;SDS011;9853;50.848;4.108;2023-02-13T01:19:18;113.13;;;43.53;;
19434;SDS011;9853;50.848;4.108;2023-02-13T01:21:20;106.43;;;41.67;;
19434;SDS011;9853;50.848;4.108;2023-02-13T01:23:22;113.77;;;42.53;;
19434;SDS011;9853;50.848;4.108;2023-02-13T01:25:25;108.67;;;41.23;;
19434;SDS011;9853;50.848;4.108;2023-02-13T01:27:27;101.70;;;41.73;;
19434;SDS011;9853;50.848;4.108;2023-02-13T01:29:28;117.83;;;43.30;;
19434;SDS011;9853;50.848;4.108;2023-02-13T01:31:32;109.57;;;42.60;;
19434;SDS011;9853;50.848;4.108;2023-02-13T01:33:33;112.83;;;42.37;;
19434;SDS011;9853;50.848;4.108;2023-02-13T01:35:37;115.97;;;42.13;;
19434;SDS011;9853;50.848;4.108;2023-02-13T01:37:43;118.97;;;43.17;;
19434;SDS011;9853;50.848;4.108;2023-02-13T01:39:44;105.90;;;41.90;;
19434;SDS011;9853;50.848;4.108;2023-02-13T01:41:46;104.97;;;40.97;;
19434;SDS011;9853;50.848;4.108;2023-02-13T01:43:50;117.03;;;43.97;;
19434;SDS011;9853;50.848;4.108;2023-02-13T01:45:56;113.50;;;40.97;;
19434;SDS011;9853;50.848;4.108;2023-02-13T01:47:59;109.67;;;41.37;;
19434;SDS011;9853;50.848;4.108;2023-02-13T01:52:30;124.00;;;42.73;;
19434;SDS011;9853;50.848;4.108;2023-02-13T01:54:32;124.17;;;42.77;;
19434;SDS011;9853;50.848;4.108;2023-02-13T01:56:36;120.57;;;42.90;;
19434;SDS011;9853;50.848;4.108;2023-02-13T01:58:46;114.97;;;41.53;;
19434;SDS011;9853;50.848;4.108;2023-02-13T02:00:50;126.03;;;42.17;;
19434;SDS011;9853;50.848;4.108;2023-02-13T02:02:54;115.10;;;43.97;;
19434;SDS011;9853;50.848;4.108;2023-02-13T02:05:01;136.30;;;45.90;;
19434;SDS011;9853;50.848;4.108;2023-02-13T02:07:08;138.93;;;45.87;;
19434;SDS011;9853;50.848;4.108;2023-02-13T02:09:35;131.90;;;46.93;;
19434;SDS011;9853;50.848;4.108;2023-02-13T02:12:03;129.87;;;44.67;;
19434;SDS011;9853;50.848;4.108;2023-02-13T02:14:21;128.87;;;43.97;;
19434;SDS011;9853;50.848;4.108;2023-02-13T02:16:28;134.23;;;45.57;;
19434;SDS011;9853;50.848;4.108;2023-02-13T02:18:33;135.47;;;46.20;;
19434;SDS011;9853;50.848;4.108;2023-02-13T02:35:33;135.77;;;44.47;;
19434;SDS011;9853;50.848;4.108;2023-02-13T02:38:13;116.47;;;43.43;;
19434;SDS011;9853;50.848;4.108;2023-02-13T02:42:22;123.47;;;43.13;;
19434;SDS011;9853;50.848;4.108;2023-02-13T02:44:36;118.63;;;44.13;;
19434;SDS011;9853;50.848;4.108;2023-02-13T02:47:01;116.20;;;42.27;;
19434;SDS011;9853;50.848;4.108;2023-02-13T02:49:44;117.90;;;41.53;;
19434;SDS011;9853;50.848;4.108;2023-02-13T02:52:18;117.60;;;42.67;;
19434;SDS011;9853;50.848;4.108;2023-02-13T02:54:23;114.33;;;41.83;;
19434;SDS011;9853;50.848;4.108;2023-02-13T02:57:07;121.03;;;42.50;;
19434;SDS011;9853;50.848;4.108;2023-02-13T02:59:29;119.30;;;42.20;;
19434;SDS011;9853;50.848;4.108;2023-02-13T03:01:51;112.47;;;42.20;;
19434;SDS011;9853;50.848;4.108;2023-02-13T03:04:32;121.43;;;42.43;;
19434;SDS011;9853;50.848;4.108;2023-02-13T03:07:19;135.37;;;42.67;;
19434;SDS011;9853;50.848;4.108;2023-02-13T03:09:26;133.53;;;42.90;;
19434;SDS011;9853;50.848;4.108;2023-02-13T03:12:18;106.27;;;40.23;;
19434;SDS011;9853;50.848;4.108;2023-02-13T03:15:05;117.43;;;40.23;;
19434;SDS011;9853;50.848;4.108;2023-02-13T03:17:08;239.57;;;41.67;;
19434;SDS011;9853;50.848;4.108;2023-02-13T03:19:41;413.53;;;45.00;;
19434;SDS011;9853;50.848;4.108;2023-02-13T03:22:23;749.87;;;49.40;;
19434;SDS011;9853;50.848;4.108;2023-02-13T03:26:56;694.53;;;46.33;;
19434;SDS011;9853;50.848;4.108;2023-02-13T03:29:37;768.70;;;46.70;;
19434;SDS011;9853;50.848;4.108;2023-02-13T03:34:37;319.97;;;40.40;;
19434;SDS011;9853;50.848;4.108;2023-02-13T03:37:34;133.43;;;40.60;;
19434;SDS011;9853;50.848;4.108;2023-02-13T03:42:10;122.87;;;43.50;;
19434;SDS011;9853;50.848;4.108;2023-02-13T03:44:25;118.47;;;41.27;;
19434;SDS011;9853;50.848;4.108;2023-02-13T03:47:07;120.00;;;41.10;;
19434;SDS011;9853;50.848;4.108;2023-02-13T03:52:30;117.53;;;41.40;;
19434;SDS011;9853;50.848;4.108;2023-02-13T03:54:51;116.17;;;41.63;;
19434;SDS011;9853;50.848;4.108;2023-02-13T03:57:23;149.17;;;39.00;;
19434;SDS011;9853;50.848;4.108;2023-02-13T03:59:45;121.60;;;36.90;;
19434;SDS011;9853;50.848;4.108;2023-02-13T04:01:50;113.57;;;39.80;;
19434;SDS011;9853;50.848;4.108;2023-02-13T04:06:13;110.47;;;39.77;;
19434;SDS011;9853;50.848;4.108;2023-02-13T04:08:17;114.57;;;39.00;;
19434;SDS011;9853;50.848;4.108;2023-02-13T04:10:18;96.00;;;36.10;;
19434;SDS011;9853;50.848;4.108;2023-02-13T04:12:22;106.93;;;37.40;;
19434;SDS011;9853;50.848;4.108;2023-02-13T04:14:57;99.23;;;35.80;;
19434;SDS011;9853;50.848;4.108;2023-02-13T04:17:42;84.97;;;32.70;;
19434;SDS011;9853;50.848;4.108;2023-02-13T04:20:13;107.87;;;35.57;;
19434;SDS011;9853;50.848;4.108;2023-02-13T04:22:23;226.40;;;29.90;;
19434;SDS011;9853;50.848;4.108;2023-02-13T04:24:28;90.00;;;31.90;;
19434;SDS011;9853;50.848;4.108;2023-02-13T04:26:34;82.13;;;29.70;;
19434;SDS011;9853;50.848;4.108;2023-02-13T04:28:37;104.37;;;36.83;;
19434;SDS011;9853;50.848;4.108;2023-02-13T04:30:47;93.77;;;34.13;;
19434;SDS011;9853;50.848;4.108;2023-02-13T04:33:18;88.40;;;34.17;;
19434;SDS011;9853;50.848;4.108;2023-02-13T04:35:28;91.87;;;35.03;;
19434;SDS011;9853;50.848;4.108;2023-02-13T04:37:51;87.03;;;32.97;;
19434;SDS011;9853;50.848;4.108;2023-02-13T04:40:09;97.07;;;35.33;;
19434;SDS011;9853;50.848;4.108;2023-02-13T04:42:36;93.00;;;34.27;;
19434;SDS011;9853;50.848;4.108;2023-02-13T04:45:04;95.97;;;34.40;;
19434;SDS011;9853;50.848;4.108;2023-02-13T04:47:22;90.53;;;33.97;;
19434;SDS011;9853;50.848;4.108;2023-02-13T04:49:33;96.03;;;34.20;;
19434;SDS011;9853;50.848;4.108;2023-02-13T04:51:52;90.27;;;34.13;;
19434;SDS011;9853;50.848;4.108;2023-02-13T04:54:45;93.10;;;32.07;;
19434;SDS011;9853;50.848;4.108;2023-02-13T04:57:02;82.43;;;31.20;;
19434;SDS011;9853;50.848;4.108;2023-02-13T04:59:03;92.00;;;33.30;;
19434;SDS011;9853;50.848;4.108;2023-02-13T05:01:27;80.93;;;30.63;;
19434;SDS011;9853;50.848;4.108;2023-02-13T05:03:35;83.87;;;31.87;;
19434;SDS011;9853;50.848;4.108;2023-02-13T05:05:40;82.53;;;31.77;;
19434;SDS011;9853;50.848;4.108;2023-02-13T05:07:46;82.47;;;30.77;;
19434;SDS011;9853;50.848;4.108;2023-02-13T05:09:54;78.43;;;30.10;;
19434;SDS011;9853;50.848;4.108;2023-02-13T05:12:05;84.67;;;29.73;;
19434;SDS011;9853;50.848;4.108;2023-02-13T05:14:14;79.53;;;31.03;;
19434;SDS011;9853;50.848;4.108;2023-02-13T05:16:55;74.60;;;28.33;;
19434;SDS011;9853;50.848;4.108;2023-02-13T05:19:16;78.27;;;29.50;;
19434;SDS011;9853;50.848;4.108;2023-02-13T05:21:42;76.90;;;28.00;;
19434;SDS011;9853;50.848;4.108;2023-02-13T05:24:06;66.37;;;25.80;;
19434;SDS011;9853;50.848;4.108;2023-02-13T05:26:27;71.90;;;27.47;;
19434;SDS011;9853;50.848;4.108;2023-02-13T05:28:30;68.33;;;27.63;;
19434;SDS011;9853;50.848;4.108;2023-02-13T05:30:54;67.20;;;26.10;;
19434;SDS011;9853;50.848;4.108;2023-02-13T05:33:24;68.13;;;26.23;;
19434;SDS011;9853;50.848;4.108;2023-02-13T05:35:35;63.80;;;24.77;;
19434;SDS011;9853;50.848;4.108;2023-02-13T05:37:42;72.83;;;26.93;;
19434;SDS011;9853;50.848;4.108;2023-02-13T05:39:46;69.57;;;26.63;;
19434;SDS011;9853;50.848;4.108;2023-02-13T05:41:47;63.43;;;26.07;;
19434;SDS011;9853;50.848;4.108;2023-02-13T05:43:48;61.80;;;24.73;;
19434;SDS011;9853;50.848;4.108;2023-02-13T05:46:04;54.10;;;23.07;;
19434;SDS011;9853;50.848;4.108;2023-02-13T05:48:14;67.50;;;25.87;;
19434;SDS011;9853;50.848;4.108;2023-02-13T05:50:18;57.73;;;24.77;;
19434;SDS011;9853;50.848;4.108;2023-02-13T05:52:22;56.90;;;24.47;;
19434;SDS011;9853;50.848;4.108;2023-02-13T05:54:47;70.87;;;27.80;;
19434;SDS011;9853;50.848;4.108;2023-02-13T05:56:51;69.27;;;29.47;;
19434;SDS011;9853;50.848;4.108;2023-02-13T05:58:58;64.10;;;28.07;;
19434;SDS011;9853;50.848;4.108;2023-02-13T06:01:11;61.47;;;25.47;;
19434;SDS011;9853;50.848;4.108;2023-02-13T06:03:19;59.17;;;25.30;;
19434;SDS011;9853;50.848;4.108;2023-02-13T06:05:32;60.90;;;25.70;;
19434;SDS011;9853;50.848;4.108;2023-02-13T06:07:32;64.30;;;24.57;;
19434;SDS011;9853;50.848;4.108;2023-02-13T06:09:33;61.67;;;25.73;;
19434;SDS011;9853;50.848;4.108;2023-02-13T06:11:34;62.77;;;25.73;;
19434;SDS011;9853;50.848;4.108;2023-02-13T06:13:35;59.00;;;24.60;;
19434;SDS011;9853;50.848;4.108;2023-02-13T06:15:36;58.60;;;25.03;;
19434;SDS011;9853;50.848;4.108;2023-02-13T06:17:36;63.67;;;25.73;;
19434;SDS011;9853;50.848;4.108;2023-02-13T06:19:37;58.53;;;23.97;;
19434;SDS011;9853;50.848;4.108;2023-02-13T06:21:38;60.30;;;24.10;;
19434;SDS011;9853;50.848;4.108;2023-02-13T06:23:39;59.23;;;24.37;;
19434;SDS011;9853;50.848;4.108;2023-02-13T06:25:40;61.93;;;24.33;;
